Terminal Aerodrome Forecast
Issued by NWS Mt. Holly, NJ

Home | Current Version | Previous Version | Text Only | Print | Product List | Glossary On
Versions: 1 2 3 4 5 6 7 8 9 10 11 12 13 14 15 16 17 18 19
000
FTUS41 KPHI 281700
TAFACY
TAF
KACY 281727Z 2818/2918 32012G20KT P6SM SCT050
     FM282100 31010KT P6SM SCT050
     FM290100 29004KT P6SM BKN200
     FM290900 00000KT P6SM BKN080
     FM291400 20005KT P6SM SCT070 OVC120=

USA.gov is the U.S. government's official web portal to all federal, state and local government web resources and services.